Terminal Aerodrome Forecast
Issued by NWS Louisville, KY

Home | Current Version | Previous Version | Text Only | Print | Product List | Glossary On
Versions: 1 2 3 4 5 6 7 8 9 10 11 12 13 14 15 16
654
FTUS43 KLMK 262320
TAFLEX
TAF
KLEX 262320Z 2700/2724 23010KT P6SM FEW040 SCT180
     FM270600 22008KT P6SM VCSH BKN030
     FM270900 24006KT P6SM VCSH BKN015
     FM271100 23005KT P6SM BKN008
     FM271600 24006KT P6SM BKN025
     FM271700 24007KT P6SM BKN030=

USA.gov is the U.S. government's official web portal to all federal, state and local government web resources and services.